sensor_id;sensor_type;location;lat;lon;timestamp;temperature;humidity
32706;DHT22;19094;50.972;3.538;2023-05-07T00:00:13;20.30;57.80
32706;DHT22;19094;50.972;3.538;2023-05-07T00:02:41;20.30;57.80
32706;DHT22;19094;50.972;3.538;2023-05-07T00:05:07;20.30;57.80
32706;DHT22;19094;50.972;3.538;2023-05-07T00:07:33;20.30;57.80
32706;DHT22;19094;50.972;3.538;2023-05-07T00:09:58;20.30;57.80
32706;DHT22;19094;50.972;3.538;2023-05-07T00:12:24;20.20;57.70
32706;DHT22;19094;50.972;3.538;2023-05-07T00:14:49;20.20;57.80
32706;DHT22;19094;50.972;3.538;2023-05-07T00:17:15;20.20;57.80
32706;DHT22;19094;50.972;3.538;2023-05-07T00:19:40;20.20;57.90
32706;DHT22;19094;50.972;3.538;2023-05-07T00:22:07;20.20;57.90
32706;DHT22;19094;50.972;3.538;2023-05-07T00:24:33;20.20;57.90
32706;DHT22;19094;50.972;3.538;2023-05-07T00:26:58;20.30;57.90
32706;DHT22;19094;50.972;3.538;2023-05-07T00:29:24;20.20;57.90
32706;DHT22;19094;50.972;3.538;2023-05-07T00:31:50;20.20;58.00
32706;DHT22;19094;50.972;3.538;2023-05-07T00:34:16;20.20;58.00
32706;DHT22;19094;50.972;3.538;2023-05-07T00:36:42;20.20;58.00
32706;DHT22;19094;50.972;3.538;2023-05-07T00:39:07;20.20;57.90
32706;DHT22;19094;50.972;3.538;2023-05-07T00:41:33;20.20;58.00
32706;DHT22;19094;50.972;3.538;2023-05-07T00:43:58;20.20;58.00
32706;DHT22;19094;50.972;3.538;2023-05-07T00:46:24;20.20;58.00
32706;DHT22;19094;50.972;3.538;2023-05-07T00:48:51;20.20;58.00
32706;DHT22;19094;50.972;3.538;2023-05-07T00:51:18;20.20;58.10
32706;DHT22;19094;50.972;3.538;2023-05-07T00:53:44;20.20;58.20
32706;DHT22;19094;50.972;3.538;2023-05-07T00:56:10;20.20;58.10
32706;DHT22;19094;50.972;3.538;2023-05-07T00:58:36;20.20;58.20
32706;DHT22;19094;50.972;3.538;2023-05-07T01:01:02;20.20;58.20
32706;DHT22;19094;50.972;3.538;2023-05-07T01:03:28;20.20;58.20
32706;DHT22;19094;50.972;3.538;2023-05-07T01:05:55;20.20;58.20
32706;DHT22;19094;50.972;3.538;2023-05-07T01:08:23;20.20;58.30
32706;DHT22;19094;50.972;3.538;2023-05-07T01:10:52;20.20;58.30
32706;DHT22;19094;50.972;3.538;2023-05-07T01:13:18;20.10;58.30
32706;DHT22;19094;50.972;3.538;2023-05-07T01:15:44;20.10;58.30
32706;DHT22;19094;50.972;3.538;2023-05-07T01:18:10;20.10;58.40
32706;DHT22;19094;50.972;3.538;2023-05-07T01:20:36;20.10;58.30
32706;DHT22;19094;50.972;3.538;2023-05-07T01:23:03;20.10;58.40
32706;DHT22;19094;50.972;3.538;2023-05-07T01:25:29;20.10;58.40
32706;DHT22;19094;50.972;3.538;2023-05-07T01:27:56;20.10;58.50
32706;DHT22;19094;50.972;3.538;2023-05-07T01:30:21;20.10;58.50
32706;DHT22;19094;50.972;3.538;2023-05-07T01:32:50;20.10;58.40
32706;DHT22;19094;50.972;3.538;2023-05-07T01:35:20;20.10;58.50
32706;DHT22;19094;50.972;3.538;2023-05-07T01:37:48;20.10;58.40
32706;DHT22;19094;50.972;3.538;2023-05-07T01:40:15;20.10;58.40
32706;DHT22;19094;50.972;3.538;2023-05-07T01:42:42;20.10;58.50
32706;DHT22;19094;50.972;3.538;2023-05-07T01:45:09;20.10;58.40
32706;DHT22;19094;50.972;3.538;2023-05-07T01:47:36;20.00;58.50
32706;DHT22;19094;50.972;3.538;2023-05-07T01:50:01;20.10;58.40
32706;DHT22;19094;50.972;3.538;2023-05-07T01:52:28;20.10;58.60
32706;DHT22;19094;50.972;3.538;2023-05-07T01:54:54;20.00;58.50
32706;DHT22;19094;50.972;3.538;2023-05-07T01:57:19;20.10;58.60
32706;DHT22;19094;50.972;3.538;2023-05-07T01:59:45;20.10;58.70
32706;DHT22;19094;50.972;3.538;2023-05-07T02:02:11;20.00;58.60
32706;DHT22;19094;50.972;3.538;2023-05-07T02:04:36;20.00;58.60
32706;DHT22;19094;50.972;3.538;2023-05-07T02:07:02;20.00;58.70
32706;DHT22;19094;50.972;3.538;2023-05-07T02:09:27;20.00;58.60
32706;DHT22;19094;50.972;3.538;2023-05-07T02:11:53;20.00;58.70
32706;DHT22;19094;50.972;3.538;2023-05-07T02:14:19;20.00;58.60
32706;DHT22;19094;50.972;3.538;2023-05-07T02:16:46;20.00;58.70
32706;DHT22;19094;50.972;3.538;2023-05-07T02:19:11;20.00;58.70
32706;DHT22;19094;50.972;3.538;2023-05-07T02:21:37;20.00;58.80
32706;DHT22;19094;50.972;3.538;2023-05-07T02:24:02;20.00;58.70
32706;DHT22;19094;50.972;3.538;2023-05-07T02:26:28;20.00;58.80
32706;DHT22;19094;50.972;3.538;2023-05-07T02:28:54;20.00;58.80
32706;DHT22;19094;50.972;3.538;2023-05-07T02:31:19;20.00;59.00
32706;DHT22;19094;50.972;3.538;2023-05-07T02:33:45;20.00;58.90
32706;DHT22;19094;50.972;3.538;2023-05-07T02:36:11;20.00;59.00
32706;DHT22;19094;50.972;3.538;2023-05-07T02:38:41;20.00;58.90
32706;DHT22;19094;50.972;3.538;2023-05-07T02:41:09;20.00;59.10
32706;DHT22;19094;50.972;3.538;2023-05-07T02:43:35;20.00;59.00
32706;DHT22;19094;50.972;3.538;2023-05-07T02:46:05;20.00;59.10
32706;DHT22;19094;50.972;3.538;2023-05-07T02:48:31;20.00;59.00
32706;DHT22;19094;50.972;3.538;2023-05-07T02:50:57;20.00;59.10
32706;DHT22;19094;50.972;3.538;2023-05-07T02:53:23;20.00;59.10
32706;DHT22;19094;50.972;3.538;2023-05-07T02:55:58;20.00;59.10
32706;DHT22;19094;50.972;3.538;2023-05-07T02:58:24;20.00;59.10
32706;DHT22;19094;50.972;3.538;2023-05-07T03:00:50;20.00;59.20
32706;DHT22;19094;50.972;3.538;2023-05-07T03:03:16;19.90;59.20
32706;DHT22;19094;50.972;3.538;2023-05-07T03:05:41;20.00;59.30
32706;DHT22;19094;50.972;3.538;2023-05-07T03:08:08;20.00;59.20
32706;DHT22;19094;50.972;3.538;2023-05-07T03:10:33;19.90;59.30
32706;DHT22;19094;50.972;3.538;2023-05-07T03:12:59;19.90;59.30
32706;DHT22;19094;50.972;3.538;2023-05-07T03:15:25;20.00;59.20
32706;DHT22;19094;50.972;3.538;2023-05-07T03:17:50;20.00;59.40
32706;DHT22;19094;50.972;3.538;2023-05-07T03:20:16;19.90;59.20
32706;DHT22;19094;50.972;3.538;2023-05-07T03:22:42;19.90;59.20
32706;DHT22;19094;50.972;3.538;2023-05-07T03:25:08;20.00;59.40
32706;DHT22;19094;50.972;3.538;2023-05-07T03:27:34;19.90;59.20
32706;DHT22;19094;50.972;3.538;2023-05-07T03:30:00;19.90;59.10
32706;DHT22;19094;50.972;3.538;2023-05-07T03:32:26;19.90;59.20
32706;DHT22;19094;50.972;3.538;2023-05-07T03:34:52;19.90;59.30
32706;DHT22;19094;50.972;3.538;2023-05-07T03:37:18;19.90;59.20
32706;DHT22;19094;50.972;3.538;2023-05-07T03:39:43;19.90;59.20
32706;DHT22;19094;50.972;3.538;2023-05-07T03:42:09;19.90;59.20
32706;DHT22;19094;50.972;3.538;2023-05-07T03:44:35;19.90;59.20
32706;DHT22;19094;50.972;3.538;2023-05-07T03:47:02;19.90;59.20
32706;DHT22;19094;50.972;3.538;2023-05-07T03:49:27;19.90;59.30
32706;DHT22;19094;50.972;3.538;2023-05-07T03:51:53;19.90;59.40
32706;DHT22;19094;50.972;3.538;2023-05-07T03:54:19;19.90;59.30
32706;DHT22;19094;50.972;3.538;2023-05-07T03:56:45;19.90;59.30
32706;DHT22;19094;50.972;3.538;2023-05-07T03:59:10;19.90;59.30
32706;DHT22;19094;50.972;3.538;2023-05-07T04:01:36;19.90;59.30
32706;DHT22;19094;50.972;3.538;2023-05-07T04:04:01;19.90;59.30
32706;DHT22;19094;50.972;3.538;2023-05-07T04:06:28;19.90;59.40
32706;DHT22;19094;50.972;3.538;2023-05-07T04:08:54;19.90;59.20
32706;DHT22;19094;50.972;3.538;2023-05-07T04:11:19;19.80;59.30
32706;DHT22;19094;50.972;3.538;2023-05-07T04:13:45;19.90;59.40
32706;DHT22;19094;50.972;3.538;2023-05-07T04:16:11;19.90;59.30
32706;DHT22;19094;50.972;3.538;2023-05-07T04:18:37;19.90;59.30
32706;DHT22;19094;50.972;3.538;2023-05-07T04:21:02;19.80;59.20
32706;DHT22;19094;50.972;3.538;2023-05-07T04:23:28;19.90;59.30
32706;DHT22;19094;50.972;3.538;2023-05-07T04:25:54;19.80;59.30
32706;DHT22;19094;50.972;3.538;2023-05-07T04:28:20;19.80;59.40
32706;DHT22;19094;50.972;3.538;2023-05-07T04:30:46;19.80;59.40
32706;DHT22;19094;50.972;3.538;2023-05-07T04:33:11;19.80;59.50
32706;DHT22;19094;50.972;3.538;2023-05-07T04:35:37;19.80;59.70
32706;DHT22;19094;50.972;3.538;2023-05-07T04:38:03;19.80;59.70
32706;DHT22;19094;50.972;3.538;2023-05-07T04:40:29;19.80;59.90
32706;DHT22;19094;50.972;3.538;2023-05-07T04:42:55;19.70;60.00
32706;DHT22;19094;50.972;3.538;2023-05-07T04:45:21;19.70;60.10
32706;DHT22;19094;50.972;3.538;2023-05-07T04:47:46;19.70;60.10
32706;DHT22;19094;50.972;3.538;2023-05-07T04:50:12;19.70;60.30
32706;DHT22;19094;50.972;3.538;2023-05-07T04:52:38;19.70;60.40
32706;DHT22;19094;50.972;3.538;2023-05-07T04:55:03;19.60;60.40
32706;DHT22;19094;50.972;3.538;2023-05-07T04:57:29;19.60;60.30
32706;DHT22;19094;50.972;3.538;2023-05-07T04:59:55;19.60;60.40
32706;DHT22;19094;50.972;3.538;2023-05-07T05:02:21;19.60;60.60
32706;DHT22;19094;50.972;3.538;2023-05-07T05:04:46;19.60;60.60
32706;DHT22;19094;50.972;3.538;2023-05-07T05:07:12;19.60;60.20
32706;DHT22;19094;50.972;3.538;2023-05-07T05:09:38;19.60;60.50
32706;DHT22;19094;50.972;3.538;2023-05-07T05:12:04;19.60;60.50
32706;DHT22;19094;50.972;3.538;2023-05-07T05:14:32;19.60;60.30
32706;DHT22;19094;50.972;3.538;2023-05-07T05:16:58;19.60;60.50
32706;DHT22;19094;50.972;3.538;2023-05-07T05:19:23;19.60;60.60
32706;DHT22;19094;50.972;3.538;2023-05-07T05:21:52;19.50;60.90
32706;DHT22;19094;50.972;3.538;2023-05-07T05:24:18;19.50;60.70
32706;DHT22;19094;50.972;3.538;2023-05-07T05:26:43;19.50;60.80
32706;DHT22;19094;50.972;3.538;2023-05-07T05:29:09;19.50;61.10
32706;DHT22;19094;50.972;3.538;2023-05-07T05:31:35;19.50;61.20
32706;DHT22;19094;50.972;3.538;2023-05-07T05:34:02;19.50;61.20
32706;DHT22;19094;50.972;3.538;2023-05-07T05:36:28;19.60;61.20
32706;DHT22;19094;50.972;3.538;2023-05-07T05:38:55;19.60;61.50
32706;DHT22;19094;50.972;3.538;2023-05-07T05:41:20;19.50;61.60
32706;DHT22;19094;50.972;3.538;2023-05-07T05:43:47;19.50;62.00
32706;DHT22;19094;50.972;3.538;2023-05-07T05:46:12;19.50;61.50
32706;DHT22;19094;50.972;3.538;2023-05-07T05:48:38;19.50;62.50
32706;DHT22;19094;50.972;3.538;2023-05-07T05:51:03;19.50;61.60
32706;DHT22;19094;50.972;3.538;2023-05-07T05:53:29;19.50;62.00
32706;DHT22;19094;50.972;3.538;2023-05-07T05:55:55;19.50;61.80
32706;DHT22;19094;50.972;3.538;2023-05-07T05:58:20;19.50;62.30
32706;DHT22;19094;50.972;3.538;2023-05-07T06:00:46;19.40;62.10
32706;DHT22;19094;50.972;3.538;2023-05-07T06:03:13;19.40;61.80
32706;DHT22;19094;50.972;3.538;2023-05-07T06:05:39;19.40;61.80
32706;DHT22;19094;50.972;3.538;2023-05-07T06:08:05;19.40;61.80
32706;DHT22;19094;50.972;3.538;2023-05-07T06:10:30;19.40;61.80
32706;DHT22;19094;50.972;3.538;2023-05-07T06:12:56;19.40;61.90
32706;DHT22;19094;50.972;3.538;2023-05-07T06:15:22;19.40;61.30
32706;DHT22;19094;50.972;3.538;2023-05-07T06:17:48;19.40;61.90
32706;DHT22;19094;50.972;3.538;2023-05-07T06:20:14;19.40;61.80
32706;DHT22;19094;50.972;3.538;2023-05-07T06:22:40;19.40;62.30
32706;DHT22;19094;50.972;3.538;2023-05-07T06:25:06;19.40;62.50
32706;DHT22;19094;50.972;3.538;2023-05-07T06:27:32;19.40;62.40
32706;DHT22;19094;50.972;3.538;2023-05-07T06:29:57;19.50;61.80
32706;DHT22;19094;50.972;3.538;2023-05-07T06:32:23;19.40;62.10
32706;DHT22;19094;50.972;3.538;2023-05-07T06:34:48;19.40;61.50
32706;DHT22;19094;50.972;3.538;2023-05-07T06:37:14;19.40;62.30
32706;DHT22;19094;50.972;3.538;2023-05-07T06:39:40;19.40;63.20
32706;DHT22;19094;50.972;3.538;2023-05-07T06:42:05;19.40;62.10
32706;DHT22;19094;50.972;3.538;2023-05-07T06:44:31;19.50;62.30
32706;DHT22;19094;50.972;3.538;2023-05-07T06:46:57;19.40;62.60
32706;DHT22;19094;50.972;3.538;2023-05-07T06:49:23;19.40;62.10
32706;DHT22;19094;50.972;3.538;2023-05-07T06:51:48;19.40;62.10
32706;DHT22;19094;50.972;3.538;2023-05-07T06:54:14;19.50;61.70
32706;DHT22;19094;50.972;3.538;2023-05-07T06:56:39;19.40;62.30
32706;DHT22;19094;50.972;3.538;2023-05-07T06:59:06;19.40;61.70
32706;DHT22;19094;50.972;3.538;2023-05-07T07:01:32;19.40;62.10
32706;DHT22;19094;50.972;3.538;2023-05-07T07:03:57;19.40;61.50
32706;DHT22;19094;50.972;3.538;2023-05-07T07:06:23;19.40;63.00
32706;DHT22;19094;50.972;3.538;2023-05-07T07:08:49;19.50;63.20
32706;DHT22;19094;50.972;3.538;2023-05-07T07:11:14;19.50;63.10
32706;DHT22;19094;50.972;3.538;2023-05-07T07:13:41;19.50;63.00
32706;DHT22;19094;50.972;3.538;2023-05-07T07:16:06;19.50;62.70
32706;DHT22;19094;50.972;3.538;2023-05-07T07:18:32;19.50;62.30
32706;DHT22;19094;50.972;3.538;2023-05-07T07:20:58;19.40;62.60
32706;DHT22;19094;50.972;3.538;2023-05-07T07:23:24;19.50;62.70
32706;DHT22;19094;50.972;3.538;2023-05-07T07:25:50;19.50;63.00
32706;DHT22;19094;50.972;3.538;2023-05-07T07:28:16;19.50;63.10
32706;DHT22;19094;50.972;3.538;2023-05-07T07:30:42;19.50;62.50
32706;DHT22;19094;50.972;3.538;2023-05-07T07:33:07;19.50;63.70
32706;DHT22;19094;50.972;3.538;2023-05-07T07:35:33;19.50;63.70
32706;DHT22;19094;50.972;3.538;2023-05-07T07:38:00;19.50;63.20
32706;DHT22;19094;50.972;3.538;2023-05-07T07:40:25;19.50;63.50
32706;DHT22;19094;50.972;3.538;2023-05-07T07:42:53;19.50;63.50
32706;DHT22;19094;50.972;3.538;2023-05-07T07:45:19;19.50;62.70
32706;DHT22;19094;50.972;3.538;2023-05-07T07:47:44;19.60;62.50
32706;DHT22;19094;50.972;3.538;2023-05-07T07:50:10;19.60;63.70
32706;DHT22;19094;50.972;3.538;2023-05-07T07:52:36;19.60;63.20
32706;DHT22;19094;50.972;3.538;2023-05-07T07:55:02;19.50;64.20
32706;DHT22;19094;50.972;3.538;2023-05-07T07:57:27;19.50;64.90
32706;DHT22;19094;50.972;3.538;2023-05-07T07:59:53;19.50;64.30
32706;DHT22;19094;50.972;3.538;2023-05-07T08:02:19;19.50;63.50
32706;DHT22;19094;50.972;3.538;2023-05-07T08:04:44;19.50;64.00
32706;DHT22;19094;50.972;3.538;2023-05-07T08:07:10;19.60;65.00
32706;DHT22;19094;50.972;3.538;2023-05-07T08:09:39;19.60;65.70
32706;DHT22;19094;50.972;3.538;2023-05-07T08:12:06;19.50;65.30
32706;DHT22;19094;50.972;3.538;2023-05-07T08:14:32;19.50;63.40
32706;DHT22;19094;50.972;3.538;2023-05-07T08:16:58;19.50;63.00
32706;DHT22;19094;50.972;3.538;2023-05-07T08:19:24;19.50;63.50
32706;DHT22;19094;50.972;3.538;2023-05-07T08:21:50;19.50;64.40
32706;DHT22;19094;50.972;3.538;2023-05-07T08:24:16;19.60;67.10
32706;DHT22;19094;50.972;3.538;2023-05-07T08:26:41;19.60;69.30
32706;DHT22;19094;50.972;3.538;2023-05-07T08:29:07;19.50;67.80
32706;DHT22;19094;50.972;3.538;2023-05-07T08:31:33;19.60;67.50
32706;DHT22;19094;50.972;3.538;2023-05-07T08:33:59;19.50;68.10
32706;DHT22;19094;50.972;3.538;2023-05-07T08:36:25;19.60;66.70
32706;DHT22;19094;50.972;3.538;2023-05-07T08:38:51;19.70;67.80
32706;DHT22;19094;50.972;3.538;2023-05-07T08:41:17;19.60;67.90
32706;DHT22;19094;50.972;3.538;2023-05-07T08:43:47;19.70;66.70
32706;DHT22;19094;50.972;3.538;2023-05-07T08:46:22;19.70;68.00
32706;DHT22;19094;50.972;3.538;2023-05-07T08:48:49;19.70;67.30
32706;DHT22;19094;50.972;3.538;2023-05-07T08:51:19;19.70;68.20
32706;DHT22;19094;50.972;3.538;2023-05-07T08:53:47;19.80;67.90
32706;DHT22;19094;50.972;3.538;2023-05-07T08:56:16;19.70;68.00
32706;DHT22;19094;50.972;3.538;2023-05-07T08:58:43;19.80;67.80
32706;DHT22;19094;50.972;3.538;2023-05-07T09:01:13;19.80;68.90
32706;DHT22;19094;50.972;3.538;2023-05-07T09:03:40;19.80;68.70
32706;DHT22;19094;50.972;3.538;2023-05-07T09:06:06;19.80;69.90
32706;DHT22;19094;50.972;3.538;2023-05-07T09:08:35;19.90;69.10
32706;DHT22;19094;50.972;3.538;2023-05-07T09:11:01;19.90;70.40
32706;DHT22;19094;50.972;3.538;2023-05-07T09:13:28;19.80;70.20
32706;DHT22;19094;50.972;3.538;2023-05-07T09:15:53;19.90;70.30
32706;DHT22;19094;50.972;3.538;2023-05-07T09:18:19;19.80;70.70
32706;DHT22;19094;50.972;3.538;2023-05-07T09:20:45;19.90;69.60
32706;DHT22;19094;50.972;3.538;2023-05-07T09:23:10;20.00;70.40
32706;DHT22;19094;50.972;3.538;2023-05-07T09:25:36;19.90;69.60
32706;DHT22;19094;50.972;3.538;2023-05-07T09:28:04;20.00;70.00
32706;DHT22;19094;50.972;3.538;2023-05-07T09:30:33;20.00;69.50
32706;DHT22;19094;50.972;3.538;2023-05-07T09:33:01;20.00;69.20
32706;DHT22;19094;50.972;3.538;2023-05-07T09:35:28;20.00;69.70
32706;DHT22;19094;50.972;3.538;2023-05-07T09:37:55;20.00;69.00
32706;DHT22;19094;50.972;3.538;2023-05-07T09:40:25;20.10;68.90
32706;DHT22;19094;50.972;3.538;2023-05-07T09:42:51;20.10;68.30
32706;DHT22;19094;50.972;3.538;2023-05-07T09:45:29;20.10;68.10
32706;DHT22;19094;50.972;3.538;2023-05-07T09:47:57;20.10;67.80
32706;DHT22;19094;50.972;3.538;2023-05-07T09:50:27;20.20;67.00
32706;DHT22;19094;50.972;3.538;2023-05-07T09:52:57;20.10;67.40
32706;DHT22;19094;50.972;3.538;2023-05-07T09:55:23;20.20;67.10
32706;DHT22;19094;50.972;3.538;2023-05-07T09:57:53;20.20;67.00
32706;DHT22;19094;50.972;3.538;2023-05-07T10:00:20;20.20;67.30
32706;DHT22;19094;50.972;3.538;2023-05-07T10:02:51;20.20;66.70
32706;DHT22;19094;50.972;3.538;2023-05-07T10:05:21;20.20;66.80
32706;DHT22;19094;50.972;3.538;2023-05-07T10:07:48;20.30;68.30
32706;DHT22;19094;50.972;3.538;2023-05-07T10:10:14;20.30;66.40
32706;DHT22;19094;50.972;3.538;2023-05-07T10:12:41;20.30;66.30
32706;DHT22;19094;50.972;3.538;2023-05-07T10:15:11;20.30;67.00
32706;DHT22;19094;50.972;3.538;2023-05-07T10:17:38;20.30;66.60
32706;DHT22;19094;50.972;3.538;2023-05-07T10:20:05;20.30;67.00
32706;DHT22;19094;50.972;3.538;2023-05-07T10:22:45;20.30;68.40
32706;DHT22;19094;50.972;3.538;2023-05-07T10:25:21;20.30;68.40
32706;DHT22;19094;50.972;3.538;2023-05-07T10:27:50;20.40;66.70
32706;DHT22;19094;50.972;3.538;2023-05-07T10:30:31;20.40;66.80
32706;DHT22;19094;50.972;3.538;2023-05-07T10:33:01;20.50;66.70
32706;DHT22;19094;50.972;3.538;2023-05-07T10:35:36;20.50;65.80
32706;DHT22;19094;50.972;3.538;2023-05-07T10:38:03;20.50;65.50
32706;DHT22;19094;50.972;3.538;2023-05-07T10:40:31;20.50;65.00
32706;DHT22;19094;50.972;3.538;2023-05-07T10:42:58;20.50;65.10
32706;DHT22;19094;50.972;3.538;2023-05-07T10:45:25;20.60;65.70
32706;DHT22;19094;50.972;3.538;2023-05-07T10:48:16;20.60;64.20
32706;DHT22;19094;50.972;3.538;2023-05-07T10:50:43;20.60;65.40
32706;DHT22;19094;50.972;3.538;2023-05-07T10:55:46;20.60;65.00
32706;DHT22;19094;50.972;3.538;2023-05-07T10:58:24;20.70;64.70
32706;DHT22;19094;50.972;3.538;2023-05-07T11:00:56;20.60;65.20
32706;DHT22;19094;50.972;3.538;2023-05-07T11:03:22;20.70;64.80
32706;DHT22;19094;50.972;3.538;2023-05-07T11:06:14;20.70;64.60
32706;DHT22;19094;50.972;3.538;2023-05-07T11:08:56;20.70;65.70
32706;DHT22;19094;50.972;3.538;2023-05-07T11:12:00;20.70;64.80
32706;DHT22;19094;50.972;3.538;2023-05-07T11:14:46;20.70;66.10
32706;DHT22;19094;50.972;3.538;2023-05-07T11:17:12;20.70;64.80
32706;DHT22;19094;50.972;3.538;2023-05-07T11:19:50;20.70;64.80
32706;DHT22;19094;50.972;3.538;2023-05-07T11:25:02;20.70;65.90
32706;DHT22;19094;50.972;3.538;2023-05-07T11:27:29;20.70;64.40
32706;DHT22;19094;50.972;3.538;2023-05-07T11:29:55;20.70;64.70
32706;DHT22;19094;50.972;3.538;2023-05-07T11:34:54;20.70;63.80
32706;DHT22;19094;50.972;3.538;2023-05-07T11:37:21;20.80;63.40
32706;DHT22;19094;50.972;3.538;2023-05-07T11:39:47;20.80;63.60
32706;DHT22;19094;50.972;3.538;2023-05-07T11:42:36;20.80;63.60
32706;DHT22;19094;50.972;3.538;2023-05-07T11:45:03;20.80;64.10
32706;DHT22;19094;50.972;3.538;2023-05-07T11:47:32;20.90;63.30
32706;DHT22;19094;50.972;3.538;2023-05-07T11:50:05;20.90;63.20
32706;DHT22;19094;50.972;3.538;2023-05-07T11:52:33;20.90;63.10
32706;DHT22;19094;50.972;3.538;2023-05-07T11:55:00;20.90;62.70
32706;DHT22;19094;50.972;3.538;2023-05-07T11:57:27;20.90;63.20
32706;DHT22;19094;50.972;3.538;2023-05-07T11:59:57;20.90;63.10
32706;DHT22;19094;50.972;3.538;2023-05-07T12:02:24;20.90;63.10
32706;DHT22;19094;50.972;3.538;2023-05-07T12:04:51;20.90;63.30
32706;DHT22;19094;50.972;3.538;2023-05-07T12:07:17;20.90;62.70
32706;DHT22;19094;50.972;3.538;2023-05-07T12:09:44;20.90;63.00
32706;DHT22;19094;50.972;3.538;2023-05-07T12:12:11;20.90;63.40
32706;DHT22;19094;50.972;3.538;2023-05-07T12:14:43;21.00;63.00
32706;DHT22;19094;50.972;3.538;2023-05-07T12:17:13;21.00;62.40
32706;DHT22;19094;50.972;3.538;2023-05-07T12:19:41;21.00;63.00
32706;DHT22;19094;50.972;3.538;2023-05-07T12:22:08;21.00;62.90
32706;DHT22;19094;50.972;3.538;2023-05-07T12:24:48;21.10;63.10
32706;DHT22;19094;50.972;3.538;2023-05-07T12:27:14;21.10;62.80
32706;DHT22;19094;50.972;3.538;2023-05-07T12:29:44;21.10;62.60
32706;DHT22;19094;50.972;3.538;2023-05-07T12:32:15;21.10;62.40
32706;DHT22;19094;50.972;3.538;2023-05-07T12:34:42;21.20;62.70
32706;DHT22;19094;50.972;3.538;2023-05-07T12:37:07;21.30;62.10
32706;DHT22;19094;50.972;3.538;2023-05-07T12:39:33;21.30;61.70
32706;DHT22;19094;50.972;3.538;2023-05-07T12:41:59;21.40;61.50
32706;DHT22;19094;50.972;3.538;2023-05-07T12:44:28;21.40;60.80
32706;DHT22;19094;50.972;3.538;2023-05-07T12:46:54;21.50;61.00
32706;DHT22;19094;50.972;3.538;2023-05-07T12:49:20;21.60;61.10
32706;DHT22;19094;50.972;3.538;2023-05-07T12:51:49;21.60;61.10
32706;DHT22;19094;50.972;3.538;2023-05-07T12:54:34;21.60;60.80
32706;DHT22;19094;50.972;3.538;2023-05-07T12:57:02;21.70;60.20
32706;DHT22;19094;50.972;3.538;2023-05-07T12:59:39;21.80;59.70
32706;DHT22;19094;50.972;3.538;2023-05-07T13:02:05;21.80;60.30
32706;DHT22;19094;50.972;3.538;2023-05-07T13:04:32;21.80;59.80
32706;DHT22;19094;50.972;3.538;2023-05-07T13:06:58;21.80;59.40
32706;DHT22;19094;50.972;3.538;2023-05-07T13:09:24;21.90;59.30
32706;DHT22;19094;50.972;3.538;2023-05-07T13:11:50;21.90;59.50
32706;DHT22;19094;50.972;3.538;2023-05-07T13:14:15;22.00;59.80
32706;DHT22;19094;50.972;3.538;2023-05-07T13:16:41;22.00;59.20
32706;DHT22;19094;50.972;3.538;2023-05-07T13:19:07;22.10;58.90
32706;DHT22;19094;50.972;3.538;2023-05-07T13:21:32;22.10;58.70
32706;DHT22;19094;50.972;3.538;2023-05-07T13:23:58;22.20;58.70
32706;DHT22;19094;50.972;3.538;2023-05-07T13:26:24;22.20;58.30
32706;DHT22;19094;50.972;3.538;2023-05-07T13:28:50;22.30;58.50
32706;DHT22;19094;50.972;3.538;2023-05-07T13:31:17;22.30;58.20
32706;DHT22;19094;50.972;3.538;2023-05-07T13:33:44;22.30;58.40
32706;DHT22;19094;50.972;3.538;2023-05-07T13:36:09;22.30;58.10
32706;DHT22;19094;50.972;3.538;2023-05-07T13:38:35;22.30;58.00
32706;DHT22;19094;50.972;3.538;2023-05-07T13:41:01;22.20;58.40
32706;DHT22;19094;50.972;3.538;2023-05-07T13:43:27;22.20;58.60
32706;DHT22;19094;50.972;3.538;2023-05-07T13:45:52;22.20;57.90
32706;DHT22;19094;50.972;3.538;2023-05-07T13:48:18;22.20;58.30
32706;DHT22;19094;50.972;3.538;2023-05-07T13:50:44;22.10;58.40
32706;DHT22;19094;50.972;3.538;2023-05-07T13:53:09;22.00;58.80
32706;DHT22;19094;50.972;3.538;2023-05-07T13:55:35;22.00;58.60
32706;DHT22;19094;50.972;3.538;2023-05-07T13:58:02;21.90;59.10
32706;DHT22;19094;50.972;3.538;2023-05-07T14:00:28;21.80;59.20
32706;DHT22;19094;50.972;3.538;2023-05-07T14:02:55;21.80;58.90
32706;DHT22;19094;50.972;3.538;2023-05-07T14:05:21;21.70;58.60
32706;DHT22;19094;50.972;3.538;2023-05-07T14:07:50;21.70;60.00
32706;DHT22;19094;50.972;3.538;2023-05-07T14:10:17;21.60;60.40
32706;DHT22;19094;50.972;3.538;2023-05-07T14:12:44;21.60;60.20
32706;DHT22;19094;50.972;3.538;2023-05-07T14:15:10;21.50;60.70
32706;DHT22;19094;50.972;3.538;2023-05-07T14:17:36;21.50;61.00
32706;DHT22;19094;50.972;3.538;2023-05-07T14:20:02;21.40;60.90
32706;DHT22;19094;50.972;3.538;2023-05-07T14:22:28;21.40;59.40
32706;DHT22;19094;50.972;3.538;2023-05-07T14:24:54;21.40;61.40
32706;DHT22;19094;50.972;3.538;2023-05-07T14:27:20;21.30;61.00
32706;DHT22;19094;50.972;3.538;2023-05-07T14:29:45;21.30;61.90
32706;DHT22;19094;50.972;3.538;2023-05-07T14:32:17;21.30;62.70
32706;DHT22;19094;50.972;3.538;2023-05-07T14:34:43;21.20;61.30
32706;DHT22;19094;50.972;3.538;2023-05-07T14:37:09;21.20;63.70
32706;DHT22;19094;50.972;3.538;2023-05-07T14:39:35;21.10;60.90
32706;DHT22;19094;50.972;3.538;2023-05-07T14:42:00;21.10;63.90
32706;DHT22;19094;50.972;3.538;2023-05-07T14:44:26;21.10;64.60
32706;DHT22;19094;50.972;3.538;2023-05-07T14:46:51;21.10;64.90
32706;DHT22;19094;50.972;3.538;2023-05-07T14:49:17;21.10;63.80
32706;DHT22;19094;50.972;3.538;2023-05-07T14:51:46;21.10;61.50
32706;DHT22;19094;50.972;3.538;2023-05-07T14:54:13;21.10;62.30
32706;DHT22;19094;50.972;3.538;2023-05-07T14:56:39;21.10;64.80
32706;DHT22;19094;50.972;3.538;2023-05-07T14:59:05;21.20;61.70
32706;DHT22;19094;50.972;3.538;2023-05-07T15:01:32;21.20;60.00
32706;DHT22;19094;50.972;3.538;2023-05-07T15:03:57;21.20;61.40
32706;DHT22;19094;50.972;3.538;2023-05-07T15:06:23;21.20;62.20
32706;DHT22;19094;50.972;3.538;2023-05-07T15:08:49;21.30;62.70
32706;DHT22;19094;50.972;3.538;2023-05-07T15:11:15;21.30;62.40
32706;DHT22;19094;50.972;3.538;2023-05-07T15:13:42;21.30;62.50
32706;DHT22;19094;50.972;3.538;2023-05-07T15:16:08;21.30;62.70
32706;DHT22;19094;50.972;3.538;2023-05-07T15:18:33;21.30;62.90
32706;DHT22;19094;50.972;3.538;2023-05-07T15:20:59;21.30;62.10
32706;DHT22;19094;50.972;3.538;2023-05-07T15:23:25;21.30;62.10
32706;DHT22;19094;50.972;3.538;2023-05-07T15:25:51;21.30;62.50
32706;DHT22;19094;50.972;3.538;2023-05-07T15:28:17;21.30;62.20
32706;DHT22;19094;50.972;3.538;2023-05-07T15:30:43;21.30;62.20
32706;DHT22;19094;50.972;3.538;2023-05-07T15:33:08;21.30;62.70
32706;DHT22;19094;50.972;3.538;2023-05-07T15:35:35;21.30;62.10